Time;durP1;ratioP1;P1;durP2;ratioP2;P2;SDS_P1;SDS_P2;PMS_P1;PMS_P2;Temp;Humidity;BMP_temperature;BMP_pressure;BME280_temperature;BME280_humidity;BME280_pressure;Samples;Min_cycle;Max_cycle;Signal;HPM_P1;HPM_P2
2022/09/12 00:00:43;;;;;;;;;;;;;;;19.84;63.01;101400.69;1016446;29;643;-77
2022/09/12 00:01:34;;;;;;;;;;;;;;;19.86;63.03;101404.09;1016557;29;636;-76
2022/09/12 00:02:24;;;;;;;;;;;;;;;19.85;62.70;101392.41;1017029;29;752;-76
2022/09/12 00:03:14;;;;;;;;;;;;;;;19.85;63.17;101402.38;1016486;29;690;-77
2022/09/12 00:04:05;;;;;;;;;;;;;;;19.84;63.05;101395.28;1016448;29;1036;-77
2022/09/12 00:04:55;;;;;;;;;;;;;;;19.83;63.28;101405.25;1017076;29;677;-77
2022/09/12 00:05:46;;;;;;;;;;;;;;;19.82;62.66;101402.69;1016333;29;606;-77
2022/09/12 00:06:36;;;;;;;;;;;;;;;19.81;62.65;101398.25;1016468;29;662;-77
2022/09/12 00:07:26;;;;;;;;;;;;;;;19.80;63.08;101401.97;1012825;29;655;-77
2022/09/12 00:08:17;;;;;;;;;;;;;;;19.80;62.79;101408.22;1009426;29;710;-77
2022/09/12 00:09:07;;;;;;;;;;;;;;;19.81;62.71;101403.66;1012809;29;623;-77
2022/09/12 00:09:58;;;;;;;;;;;;;;;19.81;62.58;101399.13;1012246;29;603;-77
2022/09/12 00:10:48;;;;;;;;;;;;;;;19.82;62.36;101403.53;1015869;29;725;-77
2022/09/12 00:11:39;;;;;;;;;;;;;;;19.79;62.69;101402.97;1019378;29;1502;-76
2022/09/12 00:12:29;;;;;;;;;;;;;;;19.79;63.14;101401.09;1020892;29;1971;-78
2022/09/12 00:13:19;;;;;;;;;;;;;;;19.77;62.65;101395.84;1020773;29;1475;-77
2022/09/12 00:14:10;;;;;;;;;;;;;;;19.76;62.48;101394.13;1020960;29;706;-78
2022/09/12 00:15:00;;;;;;;;;;;;;;;19.77;62.67;101401.25;1017580;29;651;-78
2022/09/12 00:15:51;;;;;;;;;;;;;;;19.75;62.76;101392.44;1012453;29;687;-77
2022/09/12 00:16:41;;;;;;;;;;;;;;;19.74;62.81;101396.13;1016756;29;735;-77
2022/09/12 00:17:32;;;;;;;;;;;;;;;19.76;62.90;101399.53;1017849;29;647;-77
2022/09/12 00:18:22;;;;;;;;;;;;;;;19.76;63.11;101399.53;1018464;29;627;-78
2022/09/12 00:19:12;;;;;;;;;;;;;;;19.76;62.97;101391.44;1019580;29;1409;-78
2022/09/12 00:20:03;;;;;;;;;;;;;;;19.71;63.04;101391.00;1020960;29;647;-78
2022/09/12 00:20:53;;;;;;;;;;;;;;;19.73;62.65;101391.72;1017680;29;634;-77
2022/09/12 00:21:44;;;;;;;;;;;;;;;19.74;62.98;101387.16;1018260;29;633;-77
2022/09/12 00:22:34;;;;;;;;;;;;;;;19.75;62.46;101391.56;1016887;29;580;-77
2022/09/12 00:23:24;;;;;;;;;;;;;;;19.74;62.68;101390.72;1016697;29;686;-78
2022/09/12 00:24:15;;;;;;;;;;;;;;;19.72;62.38;101390.00;1016755;29;694;-77
2022/09/12 00:25:05;;;;;;;;;;;;;;;19.72;62.71;101398.13;1018015;29;634;-78
2022/09/12 00:25:56;;;;;;;;;;;;;;;19.71;62.93;101385.59;1016500;29;737;-78
2022/09/12 00:26:46;;;;;;;;;;;;;;;19.72;62.47;101386.44;1018180;29;619;-77
2022/09/12 00:27:37;;;;;;;;;;;;;;;19.73;63.09;101385.47;1018240;29;812;-78
2022/09/12 00:28:27;;;;;;;;;;;;;;;19.72;62.59;101386.44;1018217;29;690;-77
2022/09/12 00:29:17;;;;;;;;;;;;;;;19.72;63.13;101384.59;1018488;29;1433;-78
2022/09/12 00:30:08;;;;;;;;;;;;;;;19.69;62.28;101384.91;1020352;29;1410;-78
2022/09/12 00:30:58;;;;;;;;;;;;;;;19.70;62.99;101385.78;1020536;29;714;-78
2022/09/12 00:31:49;;;;;;;;;;;;;;;19.72;62.56;101389.16;1019911;29;636;-76
2022/09/12 00:32:39;;;;;;;;;;;;;;;19.69;62.56;101376.81;1020484;29;635;-77
2022/09/12 00:33:30;;;;;;;;;;;;;;;19.70;62.67;101378.50;1020972;29;678;-76
2022/09/12 00:34:20;;;;;;;;;;;;;;;19.70;62.28;101380.38;1020502;29;560;-77
2022/09/12 00:35:11;;;;;;;;;;;;;;;19.68;62.83;101379.66;1020971;29;706;-77
2022/09/12 00:36:02;;;;;;;;;;;;;;;19.67;62.83;101373.38;1020355;29;682;-77
2022/09/12 00:36:52;;;;;;;;;;;;;;;19.68;62.75;101387.75;1020478;29;756;-76
2022/09/12 00:37:43;;;;;;;;;;;;;;;19.68;62.73;101375.09;1020802;29;722;-76
2022/09/12 00:38:37;;;;;;;;;;;;;;;19.66;62.65;101376.22;1020879;29;698;-77
2022/09/12 00:39:27;;;;;;;;;;;;;;;19.65;62.89;101377.22;1020177;29;1453;-77
2022/09/12 00:40:18;;;;;;;;;;;;;;;19.66;62.51;101374.38;1021229;29;571;-76
2022/09/12 00:41:08;;;;;;;;;;;;;;;19.65;62.61;101375.38;1021695;29;706;-76
2022/09/12 00:41:59;;;;;;;;;;;;;;;19.66;63.05;101377.09;1022073;29;701;-76
2022/09/12 00:42:49;;;;;;;;;;;;;;;19.65;62.27;101375.38;1021471;29;659;-76
2022/09/12 00:43:39;;;;;;;;;;;;;;;19.62;62.38;101374.81;1021414;29;706;-77
2022/09/12 00:44:30;;;;;;;;;;;;;;;19.62;62.39;101377.50;1021551;29;659;-76
2022/09/12 00:45:20;;;;;;;;;;;;;;;19.62;63.17;101380.22;1021538;29;691;-76
2022/09/12 00:46:11;;;;;;;;;;;;;;;19.62;62.34;101370.25;1020989;29;592;-77
2022/09/12 00:47:01;;;;;;;;;;;;;;;19.63;62.69;101371.13;1022261;29;1238;-76
2022/09/12 00:47:51;;;;;;;;;;;;;;;19.62;62.36;101370.25;1024804;29;694;-77
2022/09/12 00:48:42;;;;;;;;;;;;;;;19.59;63.22;101367.00;1024869;29;698;-77
2022/09/12 00:49:32;;;;;;;;;;;;;;;19.61;62.63;101367.69;1022631;29;1421;-77
2022/09/12 00:50:23;;;;;;;;;;;;;;;19.60;62.60;101374.97;1021390;29;608;-78
2022/09/12 00:51:13;;;;;;;;;;;;;;;19.60;62.28;101366.84;1021439;29;709;-77
2022/09/12 00:52:03;;;;;;;;;;;;;;;19.60;62.63;101371.41;1021424;29;1914;-77
2022/09/12 00:52:54;;;;;;;;;;;;;;;19.59;62.96;101370.53;1021428;29;697;-77
2022/09/12 00:53:44;;;;;;;;;;;;;;;19.57;63.06;101377.94;1021428;29;638;-77
2022/09/12 00:54:35;;;;;;;;;;;;;;;19.60;63.08;101372.25;1021474;29;665;-77
2022/09/12 00:55:26;;;;;;;;;;;;;;;19.60;62.73;101366.84;1021525;29;701;-77
2022/09/12 00:56:17;;;;;;;;;;;;;;;19.61;62.87;101371.25;1020793;29;639;-77
2022/09/12 00:57:08;;;;;;;;;;;;;;;19.60;62.51;101372.25;1021379;29;606;-77
2022/09/12 00:57:58;;;;;;;;;;;;;;;19.60;63.20;101366.84;1020900;29;737;-77
2022/09/12 00:58:49;;;;;;;;;;;;;;;19.60;62.85;101372.25;1021391;29;551;-78
2022/09/12 00:59:39;;;;;;;;;;;;;;;19.58;62.67;101374.25;1021262;29;1473;-77
2022/09/12 01:00:30;;;;;;;;;;;;;;;19.59;62.62;101373.25;1020932;29;744;-77
2022/09/12 01:01:20;;;;;;;;;;;;;;;19.59;63.22;101373.25;1020785;29;651;-76
2022/09/12 01:02:11;;;;;;;;;;;;;;;19.57;62.95;101372.53;1020814;29;662;-78
2022/09/12 01:03:01;;;;;;;;;;;;;;;19.56;62.99;101373.53;1020392;29;698;-77
2022/09/12 01:03:52;;;;;;;;;;;;;;;19.54;62.61;101364.72;1020744;29;690;-76
2022/09/12 01:04:42;;;;;;;;;;;;;;;19.56;63.05;101365.41;1020303;29;655;-76
2022/09/12 01:05:32;;;;;;;;;;;;;;;19.55;62.34;101363.72;1020918;29;623;-76
2022/09/12 01:06:23;;;;;;;;;;;;;;;19.57;63.27;101368.97;1020583;29;667;-76
2022/09/12 01:07:14;;;;;;;;;;;;;;;19.55;63.06;101358.31;1020662;29;672;-76
2022/09/12 01:08:04;;;;;;;;;;;;;;;19.54;62.75;101355.75;1020656;29;1477;-75
2022/09/12 01:08:55;;;;;;;;;;;;;;;19.49;62.55;101361.56;1020697;29;723;-76
2022/09/12 01:09:45;;;;;;;;;;;;;;;19.53;63.23;101360.28;1021419;29;649;-76
2022/09/12 01:10:36;;;;;;;;;;;;;;;19.53;62.47;101365.69;1021083;29;689;-76
2022/09/12 01:11:26;;;;;;;;;;;;;;;19.53;62.89;101359.44;1021542;29;677;-76
2022/09/12 01:12:16;;;;;;;;;;;;;;;19.52;63.09;101369.44;1021855;29;1980;-77
2022/09/12 01:13:07;;;;;;;;;;;;;;;19.49;62.72;101363.44;1021172;29;1291;-76
2022/09/12 01:13:57;;;;;;;;;;;;;;;19.51;63.09;101358.75;1021282;29;1445;-77
2022/09/12 01:14:48;;;;;;;;;;;;;;;19.51;63.10;101356.91;1021261;29;1391;-76
2022/09/12 01:15:38;;;;;;;;;;;;;;;19.53;62.89;101357.59;1021383;29;674;-76
2022/09/12 01:16:28;;;;;;;;;;;;;;;19.50;62.85;101357.91;1021366;29;870;-76
2022/09/12 01:17:19;;;;;;;;;;;;;;;19.52;62.73;101358.63;1021357;29;658;-76
2022/09/12 01:18:09;;;;;;;;;;;;;;;19.51;62.55;101356.06;1021843;29;682;-76
2022/09/12 01:19:00;;;;;;;;;;;;;;;19.47;63.05;101355.47;1021304;29;615;-76
2022/09/12 01:19:51;;;;;;;;;;;;;;;19.48;62.63;101356.31;1021383;29;627;-75
2022/09/12 01:20:41;;;;;;;;;;;;;;;19.49;63.06;101355.31;1020892;29;619;-76
2022/09/12 01:21:33;;;;;;;;;;;;;;;19.48;62.73;101357.16;1021310;29;638;-77
2022/09/12 01:22:23;;;;;;;;;;;;;;;19.48;63.29;101351.75;1020723;29;674;-78
2022/09/12 01:23:14;;;;;;;;;;;;;;;19.46;62.65;101353.75;1021260;29;1555;-77
2022/09/12 01:24:04;;;;;;;;;;;;;;;19.47;63.36;101352.75;1020392;29;714;-77
2022/09/12 01:24:55;;;;;;;;;;;;;;;19.47;62.51;101344.66;1020095;29;1430;-77
2022/09/12 01:25:45;;;;;;;;;;;;;;;19.48;63.31;101353.59;1020137;29;634;-75
2022/09/12 01:26:36;;;;;;;;;;;;;;;19.47;63.36;101349.19;1020732;29;670;-76
2022/09/12 01:27:26;;;;;;;;;;;;;;;19.45;63.09;101346.63;1020197;29;599;-76
2022/09/12 01:28:17;;;;;;;;;;;;;;;19.45;62.79;101346.63;1020141;29;648;-76
2022/09/12 01:29:07;;;;;;;;;;;;;;;19.45;63.01;101346.63;1020251;29;683;-76
2022/09/12 01:29:58;;;;;;;;;;;;;;;19.43;62.62;101348.63;1020203;29;674;-76
2022/09/12 01:30:50;;;;;;;;;;;;;;;19.42;62.68;101346.91;1020264;29;659;-76
2022/09/12 01:31:40;;;;;;;;;;;;;;;19.44;63.09;101339.53;1020787;29;690;-75
2022/09/12 01:32:31;;;;;;;;;;;;;;;19.41;62.95;101347.91;1020633;29;1956;-76
2022/09/12 01:33:21;;;;;;;;;;;;;;;19.42;62.64;101342.38;1020125;29;1339;-76
2022/09/12 01:34:11;;;;;;;;;;;;;;;19.41;62.78;101345.22;1021253;29;645;-76
2022/09/12 01:35:02;;;;;;;;;;;;;;;19.41;62.67;101345.22;1021377;29;713;-76
2022/09/12 01:35:52;;;;;;;;;;;;;;;19.41;63.38;101339.81;1021369;29;639;-77
2022/09/12 01:36:44;;;;;;;;;;;;;;;19.40;63.04;101340.81;1021393;29;625;-77
2022/09/12 01:37:35;;;;;;;;;;;;;;;19.42;63.60;101341.50;1020757;29;619;-77
2022/09/12 01:38:25;;;;;;;;;;;;;;;19.41;62.69;101342.50;1020742;29;638;-76
2022/09/12 01:39:17;;;;;;;;;;;;;;;19.41;62.91;101339.81;1021282;29;799;-77
2022/09/12 01:40:08;;;;;;;;;;;;;;;19.42;63.06;101341.50;1020704;29;647;-76
2022/09/12 01:40:59;;;;;;;;;;;;;;;19.42;62.68;101336.09;1020657;29;706;-76
2022/09/12 01:41:50;;;;;;;;;;;;;;;19.41;63.03;101339.81;1021230;29;603;-76
2022/09/12 01:42:41;;;;;;;;;;;;;;;19.41;63.02;101329.84;1020691;29;723;-76
2022/09/12 01:43:31;;;;;;;;;;;;;;;19.41;62.65;101339.81;1017950;29;709;-76
2022/09/12 01:44:22;;;;;;;;;;;;;;;19.41;62.76;101335.25;1012645;29;705;-76
2022/09/12 01:45:13;;;;;;;;;;;;;;;19.39;63.25;101334.53;1009838;29;643;-75
2022/09/12 01:46:03;;;;;;;;;;;;;;;19.42;62.69;101333.41;1013738;29;647;-76
2022/09/12 01:46:54;;;;;;;;;;;;;;;19.41;63.44;101331.69;1017606;29;1072;-76
2022/09/12 01:47:44;;;;;;;;;;;;;;;19.41;62.84;101331.69;1024399;29;726;-76
2022/09/12 01:48:35;;;;;;;;;;;;;;;19.40;62.65;101328.16;1020868;29;550;-75
2022/09/12 01:49:26;;;;;;;;;;;;;;;19.39;62.91;101325.59;1019804;29;639;-74
2022/09/12 01:50:16;;;;;;;;;;;;;;;19.39;63.40;101326.44;1024119;29;631;-75
2022/09/12 01:51:07;;;;;;;;;;;;;;;19.40;63.26;101322.75;1024683;29;579;-75
2022/09/12 01:51:57;;;;;;;;;;;;;;;19.40;63.46;101324.59;1024680;29;655;-75
2022/09/12 01:52:48;;;;;;;;;;;;;;;19.38;62.87;101327.44;1024333;29;666;-75
2022/09/12 01:53:38;;;;;;;;;;;;;;;19.36;63.09;101325.88;1016497;29;638;-75
2022/09/12 01:54:29;;;;;;;;;;;;;;;19.38;63.55;101324.72;1015577;29;552;-75
2022/09/12 01:55:19;;;;;;;;;;;;;;;19.39;63.41;101325.59;1013668;29;804;-75
2022/09/12 01:56:10;;;;;;;;;;;;;;;19.38;63.52;101327.44;1012529;29;687;-77
2022/09/12 01:57:00;;;;;;;;;;;;;;;19.39;63.06;101320.19;1016046;29;677;-76
2022/09/12 01:57:50;;;;;;;;;;;;;;;19.37;63.40;101331.13;1017832;29;642;-77
2022/09/12 01:58:41;;;;;;;;;;;;;;;19.37;63.60;101324.88;1017409;29;666;-77
2022/09/12 01:59:32;;;;;;;;;;;;;;;19.38;63.62;101319.31;1017286;29;718;-74
2022/09/12 02:00:22;;;;;;;;;;;;;;;19.38;63.00;101323.88;1017945;29;733;-76
2022/09/12 02:01:14;;;;;;;;;;;;;;;19.38;63.36;101323.88;1017688;29;697;-76
2022/09/12 02:02:05;;;;;;;;;;;;;;;19.39;63.35;101326.44;1017284;29;662;-76
2022/09/12 02:02:56;;;;;;;;;;;;;;;19.37;63.44;101316.75;1017227;29;722;-77
2022/09/12 02:03:46;;;;;;;;;;;;;;;19.38;62.75;101313.06;1016697;29;690;-77
2022/09/12 02:04:37;;;;;;;;;;;;;;;19.36;62.94;101321.31;1016593;29;695;-77
2022/09/12 02:05:27;;;;;;;;;;;;;;;19.34;63.53;101317.09;1012920;29;701;-77
2022/09/12 02:06:18;;;;;;;;;;;;;;;19.34;63.50;101319.78;1014156;29;555;-77
2022/09/12 02:07:08;;;;;;;;;;;;;;;19.31;63.35;101312.81;1017738;29;641;-77
2022/09/12 02:07:58;;;;;;;;;;;;;;;19.32;62.82;101310.97;1017359;29;694;-77
2022/09/12 02:08:49;;;;;;;;;;;;;;;19.30;63.01;101313.81;1013032;29;686;-76
2022/09/12 02:09:39;;;;;;;;;;;;;;;19.30;63.25;101311.09;1014008;29;650;-76
2022/09/12 02:10:30;;;;;;;;;;;;;;;19.28;63.08;101314.94;1017597;29;751;-77
2022/09/12 02:11:20;;;;;;;;;;;;;;;19.29;63.46;101313.94;1016614;29;895;-74
2022/09/12 02:12:11;;;;;;;;;;;;;;;19.31;63.22;101311.97;1016709;29;1883;-77
2022/09/12 02:13:01;;;;;;;;;;;;;;;19.32;62.71;101313.66;1016653;29;1521;-77
2022/09/12 02:13:51;;;;;;;;;;;;;;;19.31;63.19;101310.09;1021227;29;623;-77
2022/09/12 02:14:42;;;;;;;;;;;;;;;19.30;63.38;101307.53;1021181;29;639;-77
2022/09/12 02:15:32;;;;;;;;;;;;;;;19.32;62.70;101302.84;1021097;29;578;-78
2022/09/12 02:16:23;;;;;;;;;;;;;;;19.25;63.63;101305.28;1021127;29;796;-77
2022/09/12 02:17:13;;;;;;;;;;;;;;;19.27;63.35;101313.22;1020590;29;619;-78
2022/09/12 02:18:03;;;;;;;;;;;;;;;19.26;63.41;101306.97;1021279;29;647;-78
2022/09/12 02:18:54;;;;;;;;;;;;;;;19.29;63.62;101308.53;1021215;29;635;-77
2022/09/12 02:19:44;;;;;;;;;;;;;;;19.30;63.72;101305.69;1021167;29;639;-78
2022/09/12 02:20:35;;;;;;;;;;;;;;;19.28;63.71;101306.84;1021264;29;673;-77
2022/09/12 02:21:25;;;;;;;;;;;;;;;19.27;63.71;101305.97;1021193;29;686;-77
2022/09/12 02:22:15;;;;;;;;;;;;;;;19.28;63.22;101305.00;1021246;29;654;-78
2022/09/12 02:23:07;;;;;;;;;;;;;;;19.28;62.95;101304.13;1020924;29;1461;-77
2022/09/12 02:23:57;;;;;;;;;;;;;;;19.26;63.25;101306.13;1019962;29;667;-77
2022/09/12 02:24:47;;;;;;;;;;;;;;;19.26;63.38;101308.81;1020278;29;695;-77
2022/09/12 02:25:38;;;;;;;;;;;;;;;19.24;62.90;101298.16;1020646;29;687;-78
2022/09/12 02:26:28;;;;;;;;;;;;;;;19.27;63.40;101307.84;1020582;29;683;-75
2022/09/12 02:27:19;;;;;;;;;;;;;;;19.25;63.26;101301.72;1020517;29;714;-78
2022/09/12 02:28:09;;;;;;;;;;;;;;;19.26;63.03;101306.97;1020050;29;666;-78
2022/09/12 02:29:00;;;;;;;;;;;;;;;19.26;63.23;101303.41;1019995;29;711;-77
2022/09/12 02:29:50;;;;;;;;;;;;;;;19.26;62.97;101304.28;1020512;29;639;-78
2022/09/12 02:30:41;;;;;;;;;;;;;;;19.25;62.97;101305.28;1020202;29;674;-78
2022/09/12 02:31:31;;;;;;;;;;;;;;;19.26;63.38;101306.13;1020715;29;694;-75
2022/09/12 02:32:21;;;;;;;;;;;;;;;19.25;62.78;101307.13;1020443;29;1891;-78
2022/09/12 02:33:12;;;;;;;;;;;;;;;19.27;62.80;101299.72;1019859;29;1461;-78
2022/09/12 02:34:02;;;;;;;;;;;;;;;19.25;62.89;101297.16;1021215;29;713;-75
2022/09/12 02:34:54;;;;;;;;;;;;;;;19.25;63.33;101296.31;1021113;29;666;-78
2022/09/12 02:35:44;;;;;;;;;;;;;;;19.24;63.41;101302.72;1020451;29;693;-76
2022/09/12 02:36:35;;;;;;;;;;;;;;;19.25;63.20;101296.31;1021151;29;675;-76
2022/09/12 02:37:26;;;;;;;;;;;;;;;19.26;62.95;101296.16;1020813;29;611;-76
2022/09/12 02:38:16;;;;;;;;;;;;;;;19.20;62.87;101288.63;1020556;29;604;-76
2022/09/12 02:39:06;;;;;;;;;;;;;;;19.22;63.48;101296.59;1021228;29;627;-75
2022/09/12 02:39:57;;;;;;;;;;;;;;;19.20;63.83;101293.19;1021125;29;639;-76
2022/09/12 02:40:47;;;;;;;;;;;;;;;19.18;63.01;101290.63;1021045;29;670;-76
2022/09/12 02:41:38;;;;;;;;;;;;;;;19.20;63.55;101294.03;1020985;29;627;-76
2022/09/12 02:42:28;;;;;;;;;;;;;;;19.20;62.76;101293.19;1020613;29;618;-76
2022/09/12 02:43:18;;;;;;;;;;;;;;;19.21;62.76;101292.19;1020396;29;1434;-75
2022/09/12 02:44:09;;;;;;;;;;;;;;;19.20;62.80;101285.06;1019862;29;623;-76
2022/09/12 02:44:59;;;;;;;;;;;;;;;19.21;62.93;101289.47;1019948;29;650;-75
2022/09/12 02:45:50;;;;;;;;;;;;;;;19.21;63.41;101284.94;1020459;29;579;-76
2022/09/12 02:46:40;;;;;;;;;;;;;;;19.22;63.06;101285.78;1020388;29;646;-76
2022/09/12 02:47:31;;;;;;;;;;;;;;;19.20;63.01;101282.38;1016643;29;619;-76
2022/09/12 02:48:21;;;;;;;;;;;;;;;19.21;63.44;101284.06;1017610;29;627;-76
2022/09/12 02:49:11;;;;;;;;;;;;;;;19.21;62.69;101281.38;1017555;29;682;-77
2022/09/12 02:50:04;;;;;;;;;;;;;;;19.20;62.76;101287.78;1017741;29;603;-77
2022/09/12 02:50:54;;;;;;;;;;;;;;;19.20;63.29;101288.63;1016447;29;638;-78
2022/09/12 02:51:45;;;;;;;;;;;;;;;19.19;63.34;101281.53;1019615;29;1446;-77
2022/09/12 02:52:35;;;;;;;;;;;;;;;19.19;63.25;101291.47;1019882;29;1978;-77
2022/09/12 02:53:26;;;;;;;;;;;;;;;19.19;62.85;101292.31;1020302;29;658;-77
2022/09/12 02:54:16;;;;;;;;;;;;;;;19.18;63.20;101290.63;1019934;29;682;-76
2022/09/12 02:55:06;;;;;;;;;;;;;;;19.20;62.82;101287.78;1020028;29;736;-77
2022/09/12 02:55:57;;;;;;;;;;;;;;;19.19;62.74;101288.78;1020461;29;674;-78
2022/09/12 02:56:47;;;;;;;;;;;;;;;19.19;63.08;101286.06;1019636;29;721;-78
2022/09/12 02:57:38;;;;;;;;;;;;;;;19.19;62.97;101284.22;1020421;29;662;-77
2022/09/12 02:58:28;;;;;;;;;;;;;;;19.16;63.29;101286.38;1019928;29;639;-77
2022/09/12 02:59:19;;;;;;;;;;;;;;;19.17;62.74;101282.69;1019932;29;623;-76
2022/09/12 03:00:09;;;;;;;;;;;;;;;19.15;63.84;101290.09;1019979;29;615;-77
2022/09/12 03:01:00;;;;;;;;;;;;;;;19.11;63.03;101283.25;1020024;29;628;-77
2022/09/12 03:01:50;;;;;;;;;;;;;;;19.11;63.79;101284.09;1020243;29;1457;-78
2022/09/12 03:02:40;;;;;;;;;;;;;;;19.13;63.70;101276.72;1021000;29;724;-77
2022/09/12 03:03:31;;;;;;;;;;;;;;;19.15;63.37;101280.13;1020903;29;726;-78
2022/09/12 03:04:22;;;;;;;;;;;;;;;19.16;63.68;101280.97;1020369;29;662;-78
2022/09/12 03:05:13;;;;;;;;;;;;;;;19.15;63.06;101274.72;1021033;29;838;-78
2022/09/12 03:06:03;;;;;;;;;;;;;;;19.13;63.40;101282.13;1020481;29;666;-78
2022/09/12 03:06:54;;;;;;;;;;;;;;;19.13;63.28;101273.16;1020984;29;627;-78
2022/09/12 03:07:44;;;;;;;;;;;;;;;19.11;63.32;101275.16;1020856;29;618;-78
2022/09/12 03:08:35;;;;;;;;;;;;;;;19.12;63.03;101275.00;1020885;29;665;-78
2022/09/12 03:09:25;;;;;;;;;;;;;;;19.11;63.78;101278.69;1021055;29;670;-78
2022/09/12 03:10:16;;;;;;;;;;;;;;;19.11;63.16;101281.41;1020825;29;653;-78
2022/09/12 03:11:06;;;;;;;;;;;;;;;19.11;63.24;101278.69;1020858;29;634;-78
2022/09/12 03:11:56;;;;;;;;;;;;;;;19.11;63.51;101272.44;1021259;29;1430;-78
2022/09/12 03:12:47;;;;;;;;;;;;;;;19.13;63.16;101275.84;1019740;29;659;-78
2022/09/12 03:13:37;;;;;;;;;;;;;;;19.14;63.12;101280.28;1020454;29;709;-78
2022/09/12 03:14:28;;;;;;;;;;;;;;;19.14;63.03;101275.72;1020880;29;587;-77
2022/09/12 03:15:19;;;;;;;;;;;;;;;19.13;63.57;101275.84;1019936;29;632;-78
2022/09/12 03:16:09;;;;;;;;;;;;;;;19.10;63.03;101277.00;1020285;29;646;-78
2022/09/12 03:16:59;;;;;;;;;;;;;;;19.11;63.14;101283.25;1019929;29;666;-78
2022/09/12 03:17:50;;;;;;;;;;;;;;;19.09;62.78;101275.28;1020936;29;697;-78
2022/09/12 03:18:40;;;;;;;;;;;;;;;19.08;63.22;101274.44;1020328;29;681;-78
2022/09/12 03:19:31;;;;;;;;;;;;;;;19.07;62.97;101280.84;1019732;29;647;-77
2022/09/12 03:20:21;;;;;;;;;;;;;;;19.06;63.32;101279.13;1019986;29;651;-77
2022/09/12 03:21:12;;;;;;;;;;;;;;;19.09;62.88;101280.69;1020109;29;626;-77
2022/09/12 03:22:02;;;;;;;;;;;;;;;19.07;63.60;101275.44;1020138;29;1526;-76
2022/09/12 03:22:53;;;;;;;;;;;;;;;19.10;63.06;101271.59;1020407;29;685;-76
2022/09/12 03:23:43;;;;;;;;;;;;;;;19.11;63.04;101273.31;1019573;29;631;-76
2022/09/12 03:24:34;;;;;;;;;;;;;;;19.08;62.55;101274.44;1020555;29;595;-76
2022/09/12 03:25:24;;;;;;;;;;;;;;;19.06;63.03;101268.31;1020865;29;644;-76
2022/09/12 03:26:15;;;;;;;;;;;;;;;19.08;63.45;101266.34;1021446;28;658;-76
2022/09/12 03:27:05;;;;;;;;;;;;;;;19.10;62.76;101270.75;1021508;28;627;-74
2022/09/12 03:27:56;;;;;;;;;;;;;;;19.07;62.82;101267.31;1019937;29;725;-75
2022/09/12 03:28:46;;;;;;;;;;;;;;;19.06;63.18;101270.16;1021545;29;670;-76
2022/09/12 03:29:37;;;;;;;;;;;;;;;19.06;63.20;101271.03;1021552;28;646;-76
2022/09/12 03:30:27;;;;;;;;;;;;;;;19.04;63.07;101266.75;1019395;29;623;-76
2022/09/12 03:31:18;;;;;;;;;;;;;;;19.03;63.55;101274.00;1020637;29;647;-75
2022/09/12 03:32:08;;;;;;;;;;;;;;;19.06;63.49;101270.16;1019132;29;1410;-76
2022/09/12 03:32:58;;;;;;;;;;;;;;;19.06;63.74;101264.78;1020935;29;708;-76
2022/09/12 03:33:49;;;;;;;;;;;;;;;19.03;63.10;101265.06;1020442;29;1413;-75
2022/09/12 03:34:39;;;;;;;;;;;;;;;19.01;63.20;101265.19;1021082;29;674;-75
2022/09/12 03:35:30;;;;;;;;;;;;;;;19.02;62.87;101258.78;1021340;29;701;-76
2022/09/12 03:36:20;;;;;;;;;;;;;;;19.02;63.29;101256.09;1020336;29;695;-75
2022/09/12 03:37:11;;;;;;;;;;;;;;;19.02;62.90;101258.78;1021039;29;701;-75
2022/09/12 03:38:01;;;;;;;;;;;;;;;19.03;63.30;101265.91;1020552;29;690;-75
2022/09/12 03:38:51;;;;;;;;;;;;;;;19.02;62.88;101258.78;1021110;29;631;-76
2022/09/12 03:39:42;;;;;;;;;;;;;;;19.03;62.52;101259.66;1020873;29;1296;-75
2022/09/12 03:40:32;;;;;;;;;;;;;;;19.02;63.32;101257.94;1021032;29;668;-75
2022/09/12 03:41:23;;;;;;;;;;;;;;;19.00;62.88;101258.06;1020441;29;721;-76
2022/09/12 03:42:13;;;;;;;;;;;;;;;19.02;63.24;101253.38;1017608;29;619;-76
2022/09/12 03:43:03;;;;;;;;;;;;;;;19.02;62.86;101256.09;1017557;29;717;-76
2022/09/12 03:43:55;;;;;;;;;;;;;;;19.00;63.33;101255.38;1017005;29;730;-76
2022/09/12 03:44:46;;;;;;;;;;;;;;;19.02;63.14;101256.09;1016995;29;661;-76
2022/09/12 03:45:36;;;;;;;;;;;;;;;19.00;63.62;101260.78;1016407;29;592;-76
2022/09/12 03:46:27;;;;;;;;;;;;;;;19.02;63.31;101255.25;1016502;29;678;-75
2022/09/12 03:47:17;;;;;;;;;;;;;;;19.01;63.22;101251.69;1018372;29;1258;-75
2022/09/12 03:48:07;;;;;;;;;;;;;;;19.00;63.52;101258.06;1020182;29;631;-76
2022/09/12 03:48:58;;;;;;;;;;;;;;;19.01;63.65;101256.22;1025132;28;714;-76
2022/09/12 03:49:48;;;;;;;;;;;;;;;18.99;63.39;101253.66;1025123;29;591;-76
2022/09/12 03:50:39;;;;;;;;;;;;;;;18.99;63.65;101258.22;1025034;29;619;-76
2022/09/12 03:51:29;;;;;;;;;;;;;;;18.99;63.37;101250.97;1025050;29;639;-75
2022/09/12 03:52:20;;;;;;;;;;;;;;;19.01;63.20;101254.38;1018392;29;1974;-75
2022/09/12 03:53:11;;;;;;;;;;;;;;;19.03;62.85;101255.09;1018839;29;844;-75
2022/09/12 03:54:01;;;;;;;;;;;;;;;19.03;62.94;101251.53;1017194;29;647;-75
2022/09/12 03:54:51;;;;;;;;;;;;;;;19.03;63.01;101252.41;1018417;29;621;-75
2022/09/12 03:55:42;;;;;;;;;;;;;;;19.03;62.93;101249.69;1018867;29;709;-75
2022/09/12 03:56:33;;;;;;;;;;;;;;;18.99;62.56;101253.66;1018842;29;717;-74
2022/09/12 03:57:23;;;;;;;;;;;;;;;18.99;63.19;101245.56;1017213;29;588;-75
2022/09/12 03:58:14;;;;;;;;;;;;;;;18.96;63.12;101245.88;1018759;29;642;-75
2022/09/12 03:59:05;;;;;;;;;;;;;;;18.96;62.99;101248.59;1018769;29;670;-75
2022/09/12 03:59:55;;;;;;;;;;;;;;;18.97;63.07;101239.50;1017004;29;542;-75
2022/09/12 04:00:45;;;;;;;;;;;;;;;18.99;62.63;101242.88;1018769;29;662;-75
2022/09/12 04:01:37;;;;;;;;;;;;;;;18.97;62.57;101247.59;1017109;29;702;-75
2022/09/12 04:02:27;;;;;;;;;;;;;;;18.98;63.31;101245.75;1020528;29;611;-74
2022/09/12 04:03:18;;;;;;;;;;;;;;;18.97;63.17;101244.03;1020178;29;659;-75
2022/09/12 04:04:09;;;;;;;;;;;;;;;18.96;62.96;101239.63;1019882;29;637;-75
2022/09/12 04:04:59;;;;;;;;;;;;;;;18.95;63.45;101238.78;1019837;29;735;-75
2022/09/12 04:05:49;;;;;;;;;;;;;;;18.94;63.38;101239.78;1019914;29;739;-74
2022/09/12 04:06:41;;;;;;;;;;;;;;;18.95;62.78;101243.31;1020680;29;639;-75
2022/09/12 04:07:32;;;;;;;;;;;;;;;18.97;62.59;101238.63;1021182;29;697;-75
2022/09/12 04:08:22;;;;;;;;;;;;;;;18.98;63.24;101240.34;1019845;29;710;-75
2022/09/12 04:09:12;;;;;;;;;;;;;;;18.96;62.79;101242.34;1019691;29;639;-75
2022/09/12 04:10:03;;;;;;;;;;;;;;;18.96;63.42;101240.47;1019730;29;612;-75
2022/09/12 04:10:53;;;;;;;;;;;;;;;18.95;62.85;101246.88;1016793;29;600;-76
2022/09/12 04:11:44;;;;;;;;;;;;;;;18.93;63.29;101246.16;1018160;29;1457;-77
2022/09/12 04:12:34;;;;;;;;;;;;;;;18.96;63.37;101242.34;1013161;29;1964;-77
2022/09/12 04:13:25;;;;;;;;;;;;;;;18.96;63.34;101235.06;1013015;29;659;-77
2022/09/12 04:14:15;;;;;;;;;;;;;;;18.95;63.35;101236.06;1017507;29;647;-77
2022/09/12 04:15:06;;;;;;;;;;;;;;;18.92;63.32;101241.75;1016209;29;722;-77
2022/09/12 04:15:57;;;;;;;;;;;;;;;18.90;63.61;101238.34;1016223;29;906;-77
2022/09/12 04:16:47;;;;;;;;;;;;;;;18.93;62.95;101242.63;1015960;29;777;-77
2022/09/12 04:17:37;;;;;;;;;;;;;;;18.93;63.57;101239.91;1018256;29;658;-77
2022/09/12 04:18:28;;;;;;;;;;;;;;;18.91;63.27;101240.06;1015746;29;624;-77
2022/09/12 04:19:18;;;;;;;;;;;;;;;18.90;63.53;101243.75;1016071;29;687;-77
2022/09/12 04:20:09;;;;;;;;;;;;;;;18.90;63.21;101235.66;1016222;29;629;-77
2022/09/12 04:20:59;;;;;;;;;;;;;;;18.93;62.92;101240.75;1015962;29;620;-77
2022/09/12 04:21:49;;;;;;;;;;;;;;;18.93;63.42;101235.38;1016775;29;1450;-77
2022/09/12 04:22:40;;;;;;;;;;;;;;;18.93;63.59;101237.22;1021258;29;721;-76
2022/09/12 04:23:30;;;;;;;;;;;;;;;18.92;63.26;101236.34;1021355;29;619;-77
2022/09/12 04:24:21;;;;;;;;;;;;;;;18.92;63.46;101241.75;1022033;29;660;-77
2022/09/12 04:25:12;;;;;;;;;;;;;;;18.92;62.53;101236.34;1021669;29;580;-77
2022/09/12 04:26:05;;;;;;;;;;;;;;;18.94;63.61;101236.22;1021078;29;690;-76